sensor_id;sensor_type;location;lat;lon;timestamp;pressure;altitude;pressure_sealevel;temperature;humidity
68179;BME280;69812;42.632;23.440;2023-09-18T00:00:06;95630.16;;;14.05;100.00
68179;BME280;69812;42.632;23.440;2023-09-18T00:02:36;95620.16;;;14.20;100.00
68179;BME280;69812;42.632;23.440;2023-09-18T00:05:02;95616.22;;;14.16;100.00
68179;BME280;69812;42.632;23.440;2023-09-18T00:07:28;95619.81;;;14.33;100.00
68179;BME280;69812;42.632;23.440;2023-09-18T00:09:53;95620.28;;;14.46;100.00
68179;BME280;69812;42.632;23.440;2023-09-18T00:12:18;95608.34;;;14.45;100.00
68179;BME280;69812;42.632;23.440;2023-09-18T00:14:48;95610.75;;;14.74;100.00
68179;BME280;69812;42.632;23.440;2023-09-18T00:17:13;95608.03;;;14.76;100.00
68179;BME280;69812;42.632;23.440;2023-09-18T00:19:38;95614.59;;;14.88;100.00
68179;BME280;69812;42.632;23.440;2023-09-18T00:22:04;95614.22;;;15.01;100.00
68179;BME280;69812;42.632;23.440;2023-09-18T00:24:29;95608.63;;;15.06;99.66
68179;BME280;69812;42.632;23.440;2023-09-18T00:26:55;95606.31;;;15.20;98.19
68179;BME280;69812;42.632;23.440;2023-09-18T00:29:20;95605.72;;;15.09;97.75
68179;BME280;69812;42.632;23.440;2023-09-18T00:31:46;95610.72;;;15.28;96.85
68179;BME280;69812;42.632;23.440;2023-09-18T00:34:11;95608.19;;;15.36;96.09
68179;BME280;69812;42.632;23.440;2023-09-18T00:36:36;95619.88;;;15.40;95.06
68179;BME280;69812;42.632;23.440;2023-09-18T00:39:02;95612.34;;;15.29;95.29
68179;BME280;69812;42.632;23.440;2023-09-18T00:41:29;95617.13;;;15.42;93.66
68179;BME280;69812;42.632;23.440;2023-09-18T00:43:54;95620.28;;;15.54;93.21
68179;BME280;69812;42.632;23.440;2023-09-18T00:46:19;95609.94;;;15.54;93.45
68179;BME280;69812;42.632;23.440;2023-09-18T00:48:48;95615.56;;;15.49;91.71
68179;BME280;69812;42.632;23.440;2023-09-18T00:51:17;95615.75;;;15.56;91.54
68179;BME280;69812;42.632;23.440;2023-09-18T00:53:47;95616.44;;;15.84;89.47
68179;BME280;69812;42.632;23.440;2023-09-18T00:56:17;95619.16;;;15.74;90.38
68179;BME280;69812;42.632;23.440;2023-09-18T00:58:45;95613.97;;;15.74;89.26
68179;BME280;69812;42.632;23.440;2023-09-18T01:01:11;95625.31;;;15.81;88.72
68179;BME280;69812;42.632;23.440;2023-09-18T01:03:37;95621.94;;;15.63;89.33
68179;BME280;69812;42.632;23.440;2023-09-18T01:06:02;95621.75;;;15.56;89.70
68179;BME280;69812;42.632;23.440;2023-09-18T01:08:28;95631.94;;;15.58;89.05
68179;BME280;69812;42.632;23.440;2023-09-18T01:11:25;95630.69;;;15.62;88.47
68179;BME280;69812;42.632;23.440;2023-09-18T01:16:50;95623.66;;;15.54;88.13
68179;BME280;69812;42.632;23.440;2023-09-18T01:19:16;95639.31;;;15.71;87.34
68179;BME280;69812;42.632;23.440;2023-09-18T01:21:45;95633.28;;;15.88;86.62
68179;BME280;69812;42.632;23.440;2023-09-18T01:24:11;95633.03;;;15.73;86.66
68179;BME280;69812;42.632;23.440;2023-09-18T01:26:36;95622.31;;;15.68;86.47
68179;BME280;69812;42.632;23.440;2023-09-18T01:29:02;95626.31;;;15.63;86.83
68179;BME280;69812;42.632;23.440;2023-09-18T01:31:27;95634.69;;;15.82;86.73
68179;BME280;69812;42.632;23.440;2023-09-18T01:33:53;95631.34;;;15.90;86.43
68179;BME280;69812;42.632;23.440;2023-09-18T01:36:19;95622.88;;;15.80;86.94
68179;BME280;69812;42.632;23.440;2023-09-18T01:38:46;95621.47;;;15.86;85.77
68179;BME280;69812;42.632;23.440;2023-09-18T01:41:11;95620.50;;;15.87;86.21
68179;BME280;69812;42.632;23.440;2023-09-18T01:43:37;95630.22;;;15.93;86.35
68179;BME280;69812;42.632;23.440;2023-09-18T01:46:02;95623.84;;;16.05;85.28
68179;BME280;69812;42.632;23.440;2023-09-18T01:48:28;95635.78;;;16.06;84.97
68179;BME280;69812;42.632;23.440;2023-09-18T01:50:54;95627.19;;;15.97;84.99
68179;BME280;69812;42.632;23.440;2023-09-18T01:53:19;95619.69;;;15.86;85.66
68179;BME280;69812;42.632;23.440;2023-09-18T01:55:45;95630.47;;;16.08;85.25
68179;BME280;69812;42.632;23.440;2023-09-18T01:58:10;95634.72;;;16.17;84.75
68179;BME280;69812;42.632;23.440;2023-09-18T02:00:39;95632.25;;;16.07;84.92
68179;BME280;69812;42.632;23.440;2023-09-18T02:03:07;95620.72;;;16.01;85.38
68179;BME280;69812;42.632;23.440;2023-09-18T02:05:32;95639.84;;;16.09;85.31
68179;BME280;69812;42.632;23.440;2023-09-18T02:07:58;95643.56;;;16.06;84.63
68179;BME280;69812;42.632;23.440;2023-09-18T02:10:25;95646.53;;;16.11;84.62
68179;BME280;69812;42.632;23.440;2023-09-18T02:12:51;95637.16;;;15.84;84.95
68179;BME280;69812;42.632;23.440;2023-09-18T02:15:16;95641.38;;;15.67;85.26
68179;BME280;69812;42.632;23.440;2023-09-18T02:17:41;95648.78;;;15.62;86.03
68179;BME280;69812;42.632;23.440;2023-09-18T02:20:08;95651.16;;;15.55;86.21
68179;BME280;69812;42.632;23.440;2023-09-18T02:22:37;95635.97;;;15.34;86.72
68179;BME280;69812;42.632;23.440;2023-09-18T02:25:04;95640.25;;;15.44;87.21
68179;BME280;69812;42.632;23.440;2023-09-18T02:27:29;95638.44;;;15.18;87.48
68179;BME280;69812;42.632;23.440;2023-09-18T02:29:55;95638.34;;;14.92;88.33
68179;BME280;69812;42.632;23.440;2023-09-18T02:32:20;95649.44;;;14.84;89.31
68179;BME280;69812;42.632;23.440;2023-09-18T02:34:45;95650.59;;;14.72;89.46
68179;BME280;69812;42.632;23.440;2023-09-18T02:37:11;95644.72;;;14.62;90.24
68179;BME280;69812;42.632;23.440;2023-09-18T02:39:36;95638.13;;;14.39;91.61
68179;BME280;69812;42.632;23.440;2023-09-18T02:42:02;95645.44;;;14.44;91.64
68179;BME280;69812;42.632;23.440;2023-09-18T02:44:27;95637.41;;;14.47;91.82
68179;BME280;69812;42.632;23.440;2023-09-18T02:46:53;95646.09;;;14.46;91.96
68179;BME280;69812;42.632;23.440;2023-09-18T02:49:18;95632.34;;;14.28;92.55
68179;BME280;69812;42.632;23.440;2023-09-18T02:51:43;95637.66;;;14.26;93.03
68179;BME280;69812;42.632;23.440;2023-09-18T02:54:09;95643.16;;;14.13;93.48
68179;BME280;69812;42.632;23.440;2023-09-18T02:56:34;95640.38;;;13.97;94.33
68179;BME280;69812;42.632;23.440;2023-09-18T02:58:59;95648.47;;;14.12;94.19
68179;BME280;69812;42.632;23.440;2023-09-18T03:01:25;95649.63;;;13.90;95.14
68179;BME280;69812;42.632;23.440;2023-09-18T03:03:50;95651.81;;;13.85;95.88
68179;BME280;69812;42.632;23.440;2023-09-18T03:06:16;95641.25;;;13.78;96.08
68179;BME280;69812;42.632;23.440;2023-09-18T03:08:42;95640.56;;;13.76;96.44
68179;BME280;69812;42.632;23.440;2023-09-18T03:11:14;95650.09;;;13.75;96.76
68179;BME280;69812;42.632;23.440;2023-09-18T03:13:45;95641.56;;;13.65;97.53
68179;BME280;69812;42.632;23.440;2023-09-18T03:16:11;95643.44;;;13.63;97.61
68179;BME280;69812;42.632;23.440;2023-09-18T03:18:37;95639.25;;;13.62;97.83
68179;BME280;69812;42.632;23.440;2023-09-18T03:21:02;95636.94;;;13.59;98.31
68179;BME280;69812;42.632;23.440;2023-09-18T03:23:28;95641.03;;;13.52;98.43
68179;BME280;69812;42.632;23.440;2023-09-18T03:25:53;95626.81;;;13.38;99.09
68179;BME280;69812;42.632;23.440;2023-09-18T03:28:19;95630.94;;;13.68;98.30
68179;BME280;69812;42.632;23.440;2023-09-18T03:30:44;95621.03;;;13.64;98.04
68179;BME280;69812;42.632;23.440;2023-09-18T03:33:10;95630.13;;;13.77;97.62
68179;BME280;69812;42.632;23.440;2023-09-18T03:35:48;95621.72;;;13.66;97.38
68179;BME280;69812;42.632;23.440;2023-09-18T03:38:14;95620.97;;;13.55;98.15
68179;BME280;69812;42.632;23.440;2023-09-18T03:40:42;95619.59;;;13.42;98.88
68179;BME280;69812;42.632;23.440;2023-09-18T03:43:11;95632.06;;;13.56;98.62
68179;BME280;69812;42.632;23.440;2023-09-18T03:45:39;95626.06;;;13.65;98.48
68179;BME280;69812;42.632;23.440;2023-09-18T03:48:10;95621.25;;;13.43;98.91
68179;BME280;69812;42.632;23.440;2023-09-18T03:50:35;95630.19;;;13.48;99.86
68179;BME280;69812;42.632;23.440;2023-09-18T03:53:01;95618.00;;;13.41;99.92
68179;BME280;69812;42.632;23.440;2023-09-18T03:55:26;95631.03;;;13.39;99.83
68179;BME280;69812;42.632;23.440;2023-09-18T03:57:52;95628.44;;;13.39;99.85
68179;BME280;69812;42.632;23.440;2023-09-18T04:00:18;95631.97;;;13.28;99.88
68179;BME280;69812;42.632;23.440;2023-09-18T04:02:43;95633.03;;;13.26;100.00
68179;BME280;69812;42.632;23.440;2023-09-18T04:05:08;95621.50;;;13.20;100.00
68179;BME280;69812;42.632;23.440;2023-09-18T04:07:34;95629.41;;;13.19;100.00
68179;BME280;69812;42.632;23.440;2023-09-18T04:10:00;95622.59;;;13.18;100.00
68179;BME280;69812;42.632;23.440;2023-09-18T04:12:25;95635.47;;;13.18;100.00
68179;BME280;69812;42.632;23.440;2023-09-18T04:14:50;95631.41;;;13.15;100.00
68179;BME280;69812;42.632;23.440;2023-09-18T04:17:16;95626.94;;;13.17;100.00
68179;BME280;69812;42.632;23.440;2023-09-18T04:19:41;95626.94;;;13.17;100.00
68179;BME280;69812;42.632;23.440;2023-09-18T04:22:08;95620.28;;;13.05;100.00
68179;BME280;69812;42.632;23.440;2023-09-18T04:24:33;95634.56;;;13.19;100.00
68179;BME280;69812;42.632;23.440;2023-09-18T04:26:59;95620.56;;;13.21;100.00
68179;BME280;69812;42.632;23.440;2023-09-18T04:29:24;95628.81;;;13.25;100.00
68179;BME280;69812;42.632;23.440;2023-09-18T04:31:50;95643.91;;;13.49;100.00
68179;BME280;69812;42.632;23.440;2023-09-18T04:34:17;95631.53;;;13.52;100.00
68179;BME280;69812;42.632;23.440;2023-09-18T04:36:44;95634.47;;;13.67;100.00
68179;BME280;69812;42.632;23.440;2023-09-18T04:39:09;95633.25;;;13.71;100.00
68179;BME280;69812;42.632;23.440;2023-09-18T04:41:37;95636.81;;;13.98;99.85
68179;BME280;69812;42.632;23.440;2023-09-18T04:44:04;95627.06;;;14.29;99.94
68179;BME280;69812;42.632;23.440;2023-09-18T04:46:32;95621.59;;;14.96;95.48
68179;BME280;69812;42.632;23.440;2023-09-18T04:48:58;95646.50;;;15.59;90.37
68179;BME280;69812;42.632;23.440;2023-09-18T04:51:23;95630.41;;;15.47;89.85
68179;BME280;69812;42.632;23.440;2023-09-18T04:53:48;95636.03;;;15.87;87.51
68179;BME280;69812;42.632;23.440;2023-09-18T04:56:17;95618.91;;;16.36;82.85
68179;BME280;69812;42.632;23.440;2023-09-18T04:58:43;95638.03;;;16.86;78.55
68179;BME280;69812;42.632;23.440;2023-09-18T05:01:08;95628.66;;;17.42;76.72
68179;BME280;69812;42.632;23.440;2023-09-18T05:03:38;95623.16;;;18.18;73.97
68179;BME280;69812;42.632;23.440;2023-09-18T05:06:04;95618.56;;;18.91;70.13
68179;BME280;69812;42.632;23.440;2023-09-18T05:08:30;95624.38;;;19.24;69.13
68179;BME280;69812;42.632;23.440;2023-09-18T05:10:56;95615.94;;;19.75;66.41
68179;BME280;69812;42.632;23.440;2023-09-18T05:13:25;95628.25;;;20.25;64.12
68179;BME280;69812;42.632;23.440;2023-09-18T05:15:50;95623.75;;;21.28;60.80
68179;BME280;69812;42.632;23.440;2023-09-18T05:18:15;95633.03;;;21.81;59.18
68179;BME280;69812;42.632;23.440;2023-09-18T05:20:41;95634.97;;;21.72;58.31
68179;BME280;69812;42.632;23.440;2023-09-18T05:23:06;95632.63;;;21.84;57.46
68179;BME280;69812;42.632;23.440;2023-09-18T05:25:34;95630.31;;;22.92;55.86
68179;BME280;69812;42.632;23.440;2023-09-18T05:28:03;95644.09;;;24.07;52.24
68179;BME280;69812;42.632;23.440;2023-09-18T05:30:31;95640.44;;;24.15;50.71
68179;BME280;69812;42.632;23.440;2023-09-18T05:33:00;95634.16;;;24.88;49.65
68179;BME280;69812;42.632;23.440;2023-09-18T05:35:34;95644.22;;;25.29;48.55
68179;BME280;69812;42.632;23.440;2023-09-18T05:38:02;95637.81;;;24.80;49.26
68179;BME280;69812;42.632;23.440;2023-09-18T05:40:27;95634.56;;;25.16;48.37
68179;BME280;69812;42.632;23.440;2023-09-18T05:42:54;95652.47;;;24.43;50.20
68179;BME280;69812;42.632;23.440;2023-09-18T05:45:20;95646.69;;;23.07;53.72
68179;BME280;69812;42.632;23.440;2023-09-18T05:47:45;95639.09;;;22.58;54.69
68179;BME280;69812;42.632;23.440;2023-09-18T05:50:12;95642.69;;;23.18;54.18
68179;BME280;69812;42.632;23.440;2023-09-18T05:52:46;95638.38;;;24.30;51.00
68179;BME280;69812;42.632;23.440;2023-09-18T05:55:13;95640.88;;;25.09;48.12
68179;BME280;69812;42.632;23.440;2023-09-18T05:57:39;95638.06;;;23.27;51.68
68179;BME280;69812;42.632;23.440;2023-09-18T06:00:05;95638.34;;;24.50;50.19
68179;BME280;69812;42.632;23.440;2023-09-18T06:02:30;95641.47;;;24.79;47.98
68179;BME280;69812;42.632;23.440;2023-09-18T06:04:57;95639.91;;;26.29;45.31
68179;BME280;69812;42.632;23.440;2023-09-18T06:07:24;95640.06;;;25.08;46.75
68179;BME280;69812;42.632;23.440;2023-09-18T06:09:50;95635.53;;;24.90;48.51
68179;BME280;69812;42.632;23.440;2023-09-18T06:12:15;95649.84;;;26.45;44.76
68179;BME280;69812;42.632;23.440;2023-09-18T06:14:40;95643.28;;;27.45;41.50
68179;BME280;69812;42.632;23.440;2023-09-18T06:17:08;95637.56;;;26.39;43.52
68179;BME280;69812;42.632;23.440;2023-09-18T06:19:39;95638.19;;;28.09;40.42
68179;BME280;69812;42.632;23.440;2023-09-18T06:22:04;95643.78;;;30.02;36.62
68179;BME280;69812;42.632;23.440;2023-09-18T06:24:30;95641.50;;;28.80;37.99
68179;BME280;69812;42.632;23.440;2023-09-18T06:26:55;95641.25;;;29.73;35.95
68179;BME280;69812;42.632;23.440;2023-09-18T06:29:21;95645.72;;;28.81;36.96
68179;BME280;69812;42.632;23.440;2023-09-18T06:31:46;95640.16;;;28.02;39.73
68179;BME280;69812;42.632;23.440;2023-09-18T06:34:12;95643.56;;;28.14;40.62
68179;BME280;69812;42.632;23.440;2023-09-18T06:36:37;95634.81;;;29.35;36.71
68179;BME280;69812;42.632;23.440;2023-09-18T06:39:02;95635.53;;;29.98;35.79
68179;BME280;69812;42.632;23.440;2023-09-18T06:41:28;95637.63;;;29.28;36.93
68179;BME280;69812;42.632;23.440;2023-09-18T06:43:53;95638.88;;;30.10;35.03
68179;BME280;69812;42.632;23.440;2023-09-18T06:46:19;95649.94;;;30.68;34.21
68179;BME280;69812;42.632;23.440;2023-09-18T06:48:44;95638.38;;;29.12;37.00
68179;BME280;69812;42.632;23.440;2023-09-18T06:51:15;95647.94;;;27.85;39.47
68179;BME280;69812;42.632;23.440;2023-09-18T06:53:40;95638.19;;;29.81;35.71
68179;BME280;69812;42.632;23.440;2023-09-18T06:56:05;95648.97;;;30.53;34.50
68179;BME280;69812;42.632;23.440;2023-09-18T06:58:31;95643.00;;;29.84;35.13
68179;BME280;69812;42.632;23.440;2023-09-18T07:00:56;95651.72;;;29.05;36.06
68179;BME280;69812;42.632;23.440;2023-09-18T07:03:22;95637.84;;;28.05;38.15
68179;BME280;69812;42.632;23.440;2023-09-18T07:05:48;95643.44;;;28.33;38.27
68179;BME280;69812;42.632;23.440;2023-09-18T07:08:16;95644.44;;;29.92;35.86
68179;BME280;69812;42.632;23.440;2023-09-18T07:10:44;95644.06;;;29.21;36.51
68179;BME280;69812;42.632;23.440;2023-09-18T07:13:10;95638.16;;;28.73;36.87
68179;BME280;69812;42.632;23.440;2023-09-18T07:15:37;95640.34;;;31.39;33.85
68179;BME280;69812;42.632;23.440;2023-09-18T07:18:02;95633.63;;;33.17;30.53
68179;BME280;69812;42.632;23.440;2023-09-18T07:20:28;95631.13;;;32.84;30.14
68179;BME280;69812;42.632;23.440;2023-09-18T07:22:53;95624.44;;;32.77;30.47
68179;BME280;69812;42.632;23.440;2023-09-18T07:25:19;95633.88;;;33.87;28.13
68179;BME280;69812;42.632;23.440;2023-09-18T07:27:44;95633.09;;;33.45;28.74
68179;BME280;69812;42.632;23.440;2023-09-18T07:30:13;95640.28;;;33.65;28.49
68179;BME280;69812;42.632;23.440;2023-09-18T07:32:42;95634.59;;;33.00;29.95
68179;BME280;69812;42.632;23.440;2023-09-18T07:35:08;95635.69;;;32.99;29.85
68179;BME280;69812;42.632;23.440;2023-09-18T07:37:36;95638.00;;;32.70;30.05
68179;BME280;69812;42.632;23.440;2023-09-18T07:40:08;95645.09;;;33.73;27.70
68179;BME280;69812;42.632;23.440;2023-09-18T07:42:33;95635.13;;;32.82;29.70
68179;BME280;69812;42.632;23.440;2023-09-18T07:44:59;95646.59;;;29.61;34.08
68179;BME280;69812;42.632;23.440;2023-09-18T07:47:25;95641.44;;;27.34;38.98
68179;BME280;69812;42.632;23.440;2023-09-18T07:49:50;95640.34;;;26.62;41.27
68179;BME280;69812;42.632;23.440;2023-09-18T07:52:17;95638.59;;;26.56;42.09
68179;BME280;69812;42.632;23.440;2023-09-18T07:54:42;95638.88;;;26.11;42.49
68179;BME280;69812;42.632;23.440;2023-09-18T07:57:08;95639.00;;;25.23;44.36
68179;BME280;69812;42.632;23.440;2023-09-18T07:59:35;95632.88;;;24.97;45.16
68179;BME280;69812;42.632;23.440;2023-09-18T08:02:01;95617.28;;;24.70;46.14
68179;BME280;69812;42.632;23.440;2023-09-18T08:04:27;95614.88;;;24.62;47.99
68179;BME280;69812;42.632;23.440;2023-09-18T08:06:54;95619.44;;;24.80;47.17
68179;BME280;69812;42.632;23.440;2023-09-18T08:09:20;95623.38;;;24.96;46.02
68179;BME280;69812;42.632;23.440;2023-09-18T08:11:48;95621.13;;;24.99;45.34
68179;BME280;69812;42.632;23.440;2023-09-18T08:14:15;95617.97;;;24.91;46.12
68179;BME280;69812;42.632;23.440;2023-09-18T08:16:40;95600.34;;;24.66;45.77
68179;BME280;69812;42.632;23.440;2023-09-18T08:19:06;95615.50;;;23.86;47.94
68179;BME280;69812;42.632;23.440;2023-09-18T08:21:32;95622.78;;;23.77;47.88
68179;BME280;69812;42.632;23.440;2023-09-18T08:23:58;95608.88;;;24.42;48.58
68179;BME280;69812;42.632;23.440;2023-09-18T08:26:23;95601.41;;;25.22;45.70
68179;BME280;69812;42.632;23.440;2023-09-18T08:28:50;95612.94;;;25.96;44.65
68179;BME280;69812;42.632;23.440;2023-09-18T08:31:16;95613.53;;;26.35;42.54
68179;BME280;69812;42.632;23.440;2023-09-18T08:33:44;95594.06;;;26.36;42.46
68179;BME280;69812;42.632;23.440;2023-09-18T08:36:10;95599.97;;;25.76;44.16
68179;BME280;69812;42.632;23.440;2023-09-18T08:38:35;95601.47;;;25.40;44.67
68179;BME280;69812;42.632;23.440;2023-09-18T08:41:03;95621.97;;;25.32;45.12
68179;BME280;69812;42.632;23.440;2023-09-18T08:43:31;95599.56;;;25.29;44.13
68179;BME280;69812;42.632;23.440;2023-09-18T08:45:57;95600.19;;;25.50;43.40
68179;BME280;69812;42.632;23.440;2023-09-18T08:48:27;95602.16;;;24.07;45.68
68179;BME280;69812;42.632;23.440;2023-09-18T08:51:02;95590.03;;;24.13;47.03
68179;BME280;69812;42.632;23.440;2023-09-18T08:53:30;95590.31;;;24.43;46.14
68179;BME280;69812;42.632;23.440;2023-09-18T08:55:57;95587.22;;;24.66;45.63
68179;BME280;69812;42.632;23.440;2023-09-18T08:58:25;95586.63;;;24.64;45.95
68179;BME280;69812;42.632;23.440;2023-09-18T09:00:51;95589.16;;;24.32;46.01
68179;BME280;69812;42.632;23.440;2023-09-18T09:03:17;95585.19;;;24.16;46.76
68179;BME280;69812;42.632;23.440;2023-09-18T09:05:43;95593.13;;;23.83;46.86
68179;BME280;69812;42.632;23.440;2023-09-18T09:08:11;95577.41;;;23.76;48.36
68179;BME280;69812;42.632;23.440;2023-09-18T09:10:36;95579.53;;;24.13;46.66
68179;BME280;69812;42.632;23.440;2023-09-18T09:13:03;95581.06;;;24.34;46.35
68179;BME280;69812;42.632;23.440;2023-09-18T09:15:48;95569.66;;;24.15;47.77
68179;BME280;69812;42.632;23.440;2023-09-18T09:18:15;95591.66;;;24.14;46.93
68179;BME280;69812;42.632;23.440;2023-09-18T09:20:41;95579.34;;;24.08;46.59
68179;BME280;69812;42.632;23.440;2023-09-18T09:23:17;95584.25;;;23.84;48.17
68179;BME280;69812;42.632;23.440;2023-09-18T09:25:45;95583.94;;;24.26;46.71
68179;BME280;69812;42.632;23.440;2023-09-18T09:28:10;95571.56;;;24.39;45.73
68179;BME280;69812;42.632;23.440;2023-09-18T09:30:37;95570.59;;;25.04;44.26
68179;BME280;69812;42.632;23.440;2023-09-18T09:33:10;95563.63;;;25.23;43.91
68179;BME280;69812;42.632;23.440;2023-09-18T09:35:37;95565.91;;;25.63;42.81
68179;BME280;69812;42.632;23.440;2023-09-18T09:38:10;95558.44;;;25.85;42.89
68179;BME280;69812;42.632;23.440;2023-09-18T09:40:40;95564.34;;;26.17;41.54
68179;BME280;69812;42.632;23.440;2023-09-18T09:43:08;95562.16;;;26.63;41.30
68179;BME280;69812;42.632;23.440;2023-09-18T09:45:34;95558.06;;;26.67;40.94
68179;BME280;69812;42.632;23.440;2023-09-18T09:48:04;95561.06;;;26.03;40.92
68179;BME280;69812;42.632;23.440;2023-09-18T09:50:31;95555.72;;;26.29;40.03
68179;BME280;69812;42.632;23.440;2023-09-18T09:53:04;95556.56;;;26.41;39.91
68179;BME280;69812;42.632;23.440;2023-09-18T09:55:31;95548.88;;;26.58;40.40
68179;BME280;69812;42.632;23.440;2023-09-18T09:58:02;95544.78;;;26.62;39.91
68179;BME280;69812;42.632;23.440;2023-09-18T10:00:33;95547.16;;;26.33;40.00
68179;BME280;69812;42.632;23.440;2023-09-18T10:03:09;95545.44;;;25.47;40.69
68179;BME280;69812;42.632;23.440;2023-09-18T10:05:39;95529.34;;;24.48;42.30
68179;BME280;69812;42.632;23.440;2023-09-18T10:08:09;95538.31;;;24.33;43.25
68179;BME280;69812;42.632;23.440;2023-09-18T10:10:38;95531.59;;;24.37;43.25
68179;BME280;69812;42.632;23.440;2023-09-18T10:13:09;95528.34;;;24.55;42.77
68179;BME280;69812;42.632;23.440;2023-09-18T10:15:37;95534.97;;;24.58;42.89
68179;BME280;69812;42.632;23.440;2023-09-18T10:18:17;95535.72;;;24.27;43.83
68179;BME280;69812;42.632;23.440;2023-09-18T10:20:44;95532.50;;;24.63;42.22
68179;BME280;69812;42.632;23.440;2023-09-18T10:23:27;95530.91;;;25.19;41.11
68179;BME280;69812;42.632;23.440;2023-09-18T10:25:59;95534.28;;;25.01;40.78
68179;BME280;69812;42.632;23.440;2023-09-18T10:28:30;95530.28;;;24.67;41.67
68179;BME280;69812;42.632;23.440;2023-09-18T10:30:56;95525.56;;;24.75;41.66
68179;BME280;69812;42.632;23.440;2023-09-18T10:33:25;95529.03;;;24.31;42.39
68179;BME280;69812;42.632;23.440;2023-09-18T10:35:52;95512.53;;;24.62;42.00
68179;BME280;69812;42.632;23.440;2023-09-18T10:38:18;95517.16;;;25.24;41.37
68179;BME280;69812;42.632;23.440;2023-09-18T10:40:46;95511.19;;;25.10;41.45
68179;BME280;69812;42.632;23.440;2023-09-18T10:43:16;95507.50;;;25.61;40.33
68179;BME280;69812;42.632;23.440;2023-09-18T10:45:42;95501.28;;;26.11;39.97
68179;BME280;69812;42.632;23.440;2023-09-18T10:48:11;95499.25;;;26.13;39.45
68179;BME280;69812;42.632;23.440;2023-09-18T10:50:42;95501.38;;;25.67;39.93
68179;BME280;69812;42.632;23.440;2023-09-18T10:53:08;95495.44;;;25.10;40.54
68179;BME280;69812;42.632;23.440;2023-09-18T10:55:34;95491.31;;;24.32;41.97
68179;BME280;69812;42.632;23.440;2023-09-18T10:58:00;95493.84;;;24.45;43.29
68179;BME280;69812;42.632;23.440;2023-09-18T11:00:28;95488.69;;;24.95;42.74
68179;BME280;69812;42.632;23.440;2023-09-18T11:03:09;95481.22;;;25.17;40.92
68179;BME280;69812;42.632;23.440;2023-09-18T11:05:37;95482.06;;;25.36;40.26
68179;BME280;69812;42.632;23.440;2023-09-18T11:08:28;95469.59;;;25.50;40.49
68179;BME280;69812;42.632;23.440;2023-09-18T11:11:08;95475.31;;;25.66;39.70
68179;BME280;69812;42.632;23.440;2023-09-18T11:13:41;95475.88;;;25.06;40.29
68179;BME280;69812;42.632;23.440;2023-09-18T11:16:18;95483.59;;;24.75;40.48
68179;BME280;69812;42.632;23.440;2023-09-18T11:19:05;95474.03;;;25.06;40.35
68179;BME280;69812;42.632;23.440;2023-09-18T11:21:33;95467.28;;;25.60;39.78
68179;BME280;69812;42.632;23.440;2023-09-18T11:24:03;95462.75;;;25.86;39.82
68179;BME280;69812;42.632;23.440;2023-09-18T11:26:30;95467.16;;;25.92;38.63
68179;BME280;69812;42.632;23.440;2023-09-18T11:29:00;95455.84;;;25.92;40.79
68179;BME280;69812;42.632;23.440;2023-09-18T11:31:52;95455.38;;;25.95;39.95
68179;BME280;69812;42.632;23.440;2023-09-18T11:36:50;95451.22;;;25.69;39.03
68179;BME280;69812;42.632;23.440;2023-09-18T11:39:39;95449.50;;;25.19;40.52
68179;BME280;69812;42.632;23.440;2023-09-18T11:42:18;95457.13;;;25.02;39.95
68179;BME280;69812;42.632;23.440;2023-09-18T11:44:44;95446.03;;;24.75;41.66
68179;BME280;69812;42.632;23.440;2023-09-18T11:47:17;95450.31;;;24.94;41.83
68179;BME280;69812;42.632;23.440;2023-09-18T11:49:59;95443.47;;;24.93;41.25
68179;BME280;69812;42.632;23.440;2023-09-18T11:52:26;95430.25;;;25.44;40.35
68179;BME280;69812;42.632;23.440;2023-09-18T11:54:56;95428.38;;;26.18;39.72
68179;BME280;69812;42.632;23.440;2023-09-18T11:57:21;95429.88;;;25.95;39.83
68179;BME280;69812;42.632;23.440;2023-09-18T11:59:47;95432.66;;;26.00;38.93
68179;BME280;69812;42.632;23.440;2023-09-18T12:02:20;95432.69;;;25.45;39.59
68179;BME280;69812;42.632;23.440;2023-09-18T12:04:54;95436.09;;;24.84;42.87
68179;BME280;69812;42.632;23.440;2023-09-18T12:07:24;95439.72;;;24.57;44.46
68179;BME280;69812;42.632;23.440;2023-09-18T12:09:50;95421.72;;;24.29;44.89
68179;BME280;69812;42.632;23.440;2023-09-18T12:12:16;95419.91;;;24.62;43.50
68179;BME280;69812;42.632;23.440;2023-09-18T12:14:45;95431.09;;;24.75;42.94
68179;BME280;69812;42.632;23.440;2023-09-18T12:17:14;95435.28;;;24.19;44.62
68179;BME280;69812;42.632;23.440;2023-09-18T12:19:53;95433.56;;;24.00;45.31
68179;BME280;69812;42.632;23.440;2023-09-18T12:22:26;95416.53;;;24.23;44.75
68179;BME280;69812;42.632;23.440;2023-09-18T12:24:53;95432.03;;;24.24;44.19
68179;BME280;69812;42.632;23.440;2023-09-18T12:27:18;95423.28;;;24.05;45.11
68179;BME280;69812;42.632;23.440;2023-09-18T12:29:44;95418.56;;;23.82;45.26
68179;BME280;69812;42.632;23.440;2023-09-18T12:32:10;95427.28;;;24.08;45.47
68179;BME280;69812;42.632;23.440;2023-09-18T12:34:40;95421.78;;;24.23;44.46
68179;BME280;69812;42.632;23.440;2023-09-18T12:37:08;95417.16;;;24.11;44.69
68179;BME280;69812;42.632;23.440;2023-09-18T12:39:36;95415.69;;;24.22;44.55
68179;BME280;69812;42.632;23.440;2023-09-18T12:42:02;95415.19;;;24.38;44.37
68179;BME280;69812;42.632;23.440;2023-09-18T12:44:29;95421.25;;;24.39;43.56
68179;BME280;69812;42.632;23.440;2023-09-18T12:46:54;95402.63;;;24.47;43.63
68179;BME280;69812;42.632;23.440;2023-09-18T12:49:21;95406.09;;;24.41;43.79
68179;BME280;69812;42.632;23.440;2023-09-18T12:51:56;95409.59;;;24.28;43.96
68179;BME280;69812;42.632;23.440;2023-09-18T12:54:44;95397.78;;;24.51;43.74
68179;BME280;69812;42.632;23.440;2023-09-18T12:57:19;95402.59;;;24.54;43.78